Time;durP1;ratioP1;P1;durP2;ratioP2;P2;SDS_P1;SDS_P2;PMS_P1;PMS_P2;Temp;Humidity;BMP_temperature;BMP_pressure;BME280_temperature;BME280_humidity;BME280_pressure;Samples;Min_cycle;Max_cycle;Signal;HPM_P1;HPM_P2
2023/09/14 00:00:55;;;;;;;0.77;0.67;;;14.20;99.90;;;;;;5011879;28;20219;-87
2023/09/14 00:03:21;;;;;;;4.27;1.00;;;14.20;99.90;;;;;;5034695;28;20250;-88
2023/09/14 00:05:50;;;;;;;2.93;1.20;;;14.20;99.90;;;;;;5006213;28;20195;-88
2023/09/14 00:08:16;;;;;;;1.00;0.80;;;14.20;99.90;;;;;;5022550;28;20202;-88
2023/09/14 00:10:42;;;;;;;4.57;0.67;;;14.20;99.90;;;;;;5003656;28;20225;-88
2023/09/14 00:13:09;;;;;;;1.07;0.63;;;14.10;99.90;;;;;;5005133;28;20206;-88
2023/09/14 00:15:37;;;;;;;2.77;0.83;;;14.00;99.90;;;;;;5013096;28;20239;-89
2023/09/14 00:18:03;;;;;;;1.53;0.87;;;13.90;99.90;;;;;;5021117;28;20213;-87
2023/09/14 00:20:32;;;;;;;1.20;0.77;;;13.90;99.90;;;;;;5012421;28;20260;-87
2023/09/14 00:22:58;;;;;;;1.03;0.90;;;13.90;99.90;;;;;;5026816;28;20618;-87
2023/09/14 00:25:25;;;;;;;2.83;0.53;;;13.90;99.90;;;;;;5037262;28;20225;-87
2023/09/14 00:27:54;;;;;;;1.77;1.17;;;14.00;99.90;;;;;;5027928;28;20249;-88
2023/09/14 00:30:21;;;;;;;1.07;1.03;;;14.00;99.90;;;;;;5022821;28;20261;-88
2023/09/14 00:32:49;;;;;;;0.40;0.40;;;14.00;99.90;;;;;;5044557;28;20212;-89
2023/09/14 00:35:16;;;;;;;1.57;0.93;;;14.10;99.90;;;;;;5001753;28;20199;-89
2023/09/14 00:37:42;;;;;;;1.00;0.90;;;14.10;99.90;;;;;;5030931;28;20226;-89
2023/09/14 00:40:12;;;;;;;1.03;0.53;;;14.20;99.90;;;;;;5014527;28;20225;-88
2023/09/14 00:42:41;;;;;;;1.07;0.83;;;14.20;99.90;;;;;;5014420;28;20230;-88
2023/09/14 00:45:13;;;;;;;7.50;1.27;;;14.10;99.90;;;;;;5020863;28;20276;-88
2023/09/14 00:47:42;;;;;;;1.57;0.80;;;14.10;99.90;;;;;;5021675;28;20180;-89
2023/09/14 00:50:09;;;;;;;0.93;0.63;;;14.10;99.90;;;;;;5024585;28;20624;-88
2023/09/14 00:52:37;;;;;;;1.70;0.93;;;14.10;99.90;;;;;;5012563;28;20211;-89
2023/09/14 00:55:07;;;;;;;1.53;0.80;;;14.10;99.90;;;;;;5020193;28;20709;-89
2023/09/14 00:57:34;;;;;;;0.67;0.67;;;14.00;99.90;;;;;;5011103;28;20226;-89
2023/09/14 01:00:00;;;;;;;2.67;0.97;;;14.00;99.90;;;;;;5012262;28;20563;-88
2023/09/14 01:02:26;;;;;;;0.77;0.77;;;13.90;99.90;;;;;;5015586;28;20268;-88
2023/09/14 01:04:53;;;;;;;1.03;0.93;;;13.80;99.90;;;;;;4990020;28;20294;-89
2023/09/14 01:07:19;;;;;;;3.13;1.00;;;13.70;99.90;;;;;;5005895;28;20214;-89
2023/09/14 01:09:47;;;;;;;3.30;0.97;;;13.60;99.90;;;;;;5011438;28;20260;-88
2023/09/14 01:12:14;;;;;;;1.83;0.90;;;13.60;99.90;;;;;;5013777;28;20222;-88
2023/09/14 01:14:58;;;;;;;1.13;1.00;;;13.50;99.90;;;;;;5013558;28;20558;-88
2023/09/14 01:17:53;;;;;;;1.90;0.80;;;13.40;99.90;;;;;;5024452;28;20201;-89
2023/09/14 01:20:51;;;;;;;1.13;0.90;;;13.30;99.90;;;;;;5023623;28;20746;-88
2023/09/14 01:23:41;;;;;;;2.60;1.80;;;13.20;99.90;;;;;;5024442;28;20711;-88
2023/09/14 01:26:09;;;;;;;1.80;0.90;;;13.20;99.90;;;;;;5022905;28;20612;-88
2023/09/14 01:28:35;;;;;;;2.63;0.83;;;13.00;99.90;;;;;;5024227;28;20294;-88
2023/09/14 01:31:01;;;;;;;0.60;0.60;;;12.90;99.90;;;;;;5022288;28;20353;-88
2023/09/14 01:33:29;;;;;;;1.20;0.80;;;12.80;99.90;;;;;;5014157;28;20297;-88
2023/09/14 01:36:22;;;;;;;0.97;0.97;;;12.70;99.90;;;;;;4991223;28;20616;-88
2023/09/14 01:38:49;;;;;;;1.10;1.00;;;12.70;99.90;;;;;;5023288;28;20182;-88
2023/09/14 01:41:16;;;;;;;0.97;0.90;;;12.60;99.90;;;;;;4992105;28;20186;-89
2023/09/14 01:43:45;;;;;;;2.67;1.67;;;12.60;99.90;;;;;;4991393;28;20219;-89
2023/09/14 01:46:11;;;;;;;1.27;0.90;;;12.60;99.90;;;;;;5022341;28;20215;-89
2023/09/14 01:48:37;;;;;;;1.60;1.00;;;12.50;99.90;;;;;;5021170;28;20214;-88
2023/09/14 01:51:03;;;;;;;1.10;0.83;;;12.40;99.90;;;;;;4992294;28;20237;-89
2023/09/14 01:53:28;;;;;;;1.07;0.83;;;12.30;99.90;;;;;;4988480;28;20195;-89
2023/09/14 01:55:54;;;;;;;1.30;1.20;;;12.20;99.90;;;;;;4987360;28;20582;-89
2023/09/14 01:58:21;;;;;;;4.00;0.93;;;12.10;99.90;;;;;;5006203;28;20210;-88
2023/09/14 02:00:47;;;;;;;2.13;1.10;;;12.10;99.90;;;;;;4993536;28;20241;-88
2023/09/14 02:03:13;;;;;;;2.10;1.20;;;12.10;99.90;;;;;;5006701;28;20223;-89
2023/09/14 02:05:40;;;;;;;1.60;1.37;;;12.20;99.90;;;;;;4990125;28;20230;-89
2023/09/14 02:08:06;;;;;;;3.87;1.27;;;12.20;99.90;;;;;;4990525;28;20183;-89
2023/09/14 02:10:32;;;;;;;1.30;1.07;;;12.20;99.90;;;;;;5006750;28;20276;-89
2023/09/14 02:12:57;;;;;;;1.20;0.90;;;12.10;99.90;;;;;;4989752;28;20215;-89
2023/09/14 02:15:23;;;;;;;1.33;1.20;;;12.10;99.90;;;;;;5009018;28;20620;-89
2023/09/14 02:17:49;;;;;;;1.67;1.00;;;12.10;99.90;;;;;;5009098;28;20202;-88
2023/09/14 02:20:15;;;;;;;1.70;1.03;;;12.10;99.90;;;;;;4991352;28;20196;-88
2023/09/14 02:22:41;;;;;;;1.00;0.90;;;12.10;99.90;;;;;;5002715;28;20269;-89
2023/09/14 02:25:07;;;;;;;2.00;0.73;;;12.00;99.90;;;;;;4981034;28;20238;-89
2023/09/14 02:27:33;;;;;;;1.10;0.87;;;12.00;99.90;;;;;;4957689;28;20692;-89
2023/09/14 02:29:59;;;;;;;1.47;1.37;;;11.80;99.90;;;;;;4975547;28;20578;-89
2023/09/14 02:32:28;;;;;;;1.93;1.77;;;11.70;99.90;;;;;;4969793;28;20200;-89
2023/09/14 02:34:54;;;;;;;1.80;1.00;;;11.50;99.90;;;;;;4961585;28;20622;-89
2023/09/14 02:37:20;;;;;;;0.97;0.97;;;11.50;99.90;;;;;;4953770;28;20227;-89
2023/09/14 02:39:45;;;;;;;5.60;0.60;;;11.50;99.90;;;;;;4971096;28;20226;-89
2023/09/14 02:42:11;;;;;;;1.93;0.90;;;11.40;99.90;;;;;;4970778;28;20308;-89
2023/09/14 02:44:37;;;;;;;3.37;0.80;;;11.30;99.90;;;;;;4961742;28;20199;-88
2023/09/14 02:47:03;;;;;;;1.53;0.90;;;11.10;99.90;;;;;;4961590;28;20254;-88
2023/09/14 02:49:29;;;;;;;0.93;0.60;;;10.90;99.90;;;;;;4978096;28;20215;-89
2023/09/14 02:51:55;;;;;;;4.03;1.30;;;10.80;99.90;;;;;;4952996;28;20311;-89
2023/09/14 02:54:20;;;;;;;1.53;1.20;;;10.80;99.90;;;;;;4966084;28;20213;-89
2023/09/14 02:56:47;;;;;;;1.33;0.90;;;10.70;99.90;;;;;;4951609;28;20192;-89
2023/09/14 02:59:16;;;;;;;1.67;1.00;;;10.60;99.90;;;;;;4966712;28;20520;-89
2023/09/14 03:01:44;;;;;;;0.90;0.80;;;10.60;99.90;;;;;;4972828;28;20208;-89
2023/09/14 03:04:10;;;;;;;0.90;0.90;;;10.50;99.90;;;;;;4969564;28;20303;-88
2023/09/14 03:06:35;;;;;;;3.00;1.00;;;10.40;99.90;;;;;;4978665;28;20287;-89
2023/09/14 03:09:01;;;;;;;1.47;1.17;;;10.30;99.90;;;;;;4975648;28;20216;-88
2023/09/14 03:11:27;;;;;;;1.20;0.70;;;10.30;99.90;;;;;;4958634;28;20191;-88
2023/09/14 03:13:53;;;;;;;2.03;1.33;;;10.30;99.90;;;;;;4975665;28;20695;-89
2023/09/14 03:16:18;;;;;;;0.80;0.67;;;10.20;99.90;;;;;;4968838;28;20692;-88
2023/09/14 03:18:45;;;;;;;0.70;0.70;;;10.20;99.90;;;;;;4961872;28;20206;-89
2023/09/14 03:21:22;;;;;;;1.97;1.03;;;10.30;99.90;;;;;;4985217;28;20703;-89
2023/09/14 03:23:48;;;;;;;3.30;2.10;;;10.20;99.90;;;;;;4988424;28;20230;-89
2023/09/14 03:26:14;;;;;;;7.23;1.73;;;10.20;99.90;;;;;;4955299;28;20209;-88
2023/09/14 03:28:40;;;;;;;1.57;0.77;;;10.20;99.90;;;;;;4961148;28;20208;-89
2023/09/14 03:31:06;;;;;;;3.50;1.23;;;10.20;99.90;;;;;;4971387;28;20649;-88
2023/09/14 03:33:31;;;;;;;2.57;1.53;;;10.30;99.90;;;;;;4969699;28;20239;-88
2023/09/14 03:35:59;;;;;;;0.80;0.80;;;10.30;99.90;;;;;;4961833;28;20226;-88
2023/09/14 03:38:25;;;;;;;7.37;1.17;;;10.30;99.90;;;;;;4985009;28;20195;-88
2023/09/14 03:40:50;;;;;;;1.17;0.73;;;10.30;99.90;;;;;;4977046;28;20802;-88
2023/09/14 03:43:16;;;;;;;0.97;0.87;;;10.30;99.90;;;;;;4959956;28;20227;-88
2023/09/14 03:45:42;;;;;;;5.63;1.23;;;10.30;99.90;;;;;;4974613;28;20302;-88
2023/09/14 03:48:07;;;;;;;1.43;1.30;;;10.30;99.90;;;;;;4959016;28;20215;-88
2023/09/14 03:50:33;;;;;;;1.27;1.00;;;10.30;99.90;;;;;;4971004;28;20701;-88
2023/09/14 03:53:01;;;;;;;1.67;1.57;;;10.40;99.90;;;;;;4972930;28;20525;-89
2023/09/14 03:55:26;;;;;;;2.53;1.60;;;10.40;99.90;;;;;;4967917;28;20279;-88
2023/09/14 03:57:52;;;;;;;1.23;1.23;;;10.40;99.90;;;;;;4956643;28;20219;-88
2023/09/14 04:00:18;;;;;;;0.70;0.70;;;10.30;99.90;;;;;;4968422;28;20269;-88
2023/09/14 04:02:44;;;;;;;4.20;1.60;;;10.40;99.90;;;;;;4975577;28;20618;-87
2023/09/14 04:05:15;;;;;;;4.27;1.80;;;10.40;99.90;;;;;;4960098;28;20232;-89
2023/09/14 04:07:41;;;;;;;2.30;0.80;;;10.40;99.90;;;;;;4975867;28;20582;-87
2023/09/14 04:10:10;;;;;;;1.47;1.37;;;10.50;99.90;;;;;;4962668;28;20222;-89
2023/09/14 04:12:40;;;;;;;0.93;0.63;;;10.50;99.90;;;;;;4965772;28;20219;-90
2023/09/14 04:15:07;;;;;;;2.13;1.03;;;10.50;99.90;;;;;;4978589;28;20219;-89
2023/09/14 04:17:33;;;;;;;0.70;0.70;;;10.50;99.90;;;;;;4974512;28;20559;-90
2023/09/14 04:20:00;;;;;;;3.00;1.13;;;10.60;99.90;;;;;;4960044;28;20269;-90
2023/09/14 04:22:25;;;;;;;8.67;2.20;;;10.60;99.90;;;;;;4968393;28;20306;-89
2023/09/14 04:24:51;;;;;;;3.70;1.70;;;10.60;99.90;;;;;;4991671;28;20302;-90
2023/09/14 04:27:17;;;;;;;1.83;1.00;;;10.60;99.90;;;;;;5007564;28;20206;-90
2023/09/14 04:29:43;;;;;;;1.40;1.30;;;10.60;99.90;;;;;;4993974;28;20194;-89
2023/09/14 04:32:09;;;;;;;3.33;1.00;;;10.60;99.90;;;;;;5000053;28;20186;-89
2023/09/14 04:34:35;;;;;;;1.50;1.30;;;10.70;99.90;;;;;;4999647;28;20219;-89
2023/09/14 04:37:00;;;;;;;1.30;1.20;;;10.60;99.90;;;;;;4977598;28;20221;-89
2023/09/14 04:39:26;;;;;;;2.27;1.27;;;10.60;99.90;;;;;;4975594;28;20221;-89
2023/09/14 04:41:53;;;;;;;2.50;1.30;;;10.60;99.90;;;;;;5007202;28;20191;-89
2023/09/14 04:44:18;;;;;;;2.27;1.77;;;10.70;99.90;;;;;;4978415;28;20184;-89
2023/09/14 04:46:44;;;;;;;3.17;1.57;;;10.70;99.90;;;;;;4976566;28;20585;-90
2023/09/14 04:49:12;;;;;;;1.27;0.93;;;10.60;99.90;;;;;;4977507;28;20221;-90
2023/09/14 04:51:37;;;;;;;1.27;0.97;;;10.60;99.90;;;;;;4999279;28;20289;-90
2023/09/14 04:54:03;;;;;;;3.83;2.67;;;10.60;99.90;;;;;;4975716;28;20306;-90
2023/09/14 04:56:29;;;;;;;3.27;1.70;;;10.60;99.90;;;;;;4983529;28;20209;-89
2023/09/14 04:58:55;;;;;;;1.80;1.13;;;10.60;99.90;;;;;;4955770;28;20218;-89
2023/09/14 05:01:20;;;;;;;1.90;1.43;;;10.60;99.90;;;;;;4962778;28;20603;-89
2023/09/14 05:03:46;;;;;;;0.60;0.60;;;10.70;99.90;;;;;;4989365;28;20586;-89
2023/09/14 05:06:12;;;;;;;1.47;1.20;;;10.60;99.90;;;;;;4998685;28;20206;-88
2023/09/14 05:08:38;;;;;;;3.03;1.60;;;10.60;99.90;;;;;;4991235;28;20183;-89
2023/09/14 05:11:04;;;;;;;2.07;1.30;;;10.60;99.90;;;;;;4997223;28;20183;-88
2023/09/14 05:13:30;;;;;;;2.43;1.60;;;10.60;99.90;;;;;;4998668;28;20253;-88
2023/09/14 05:15:57;;;;;;;4.87;1.63;;;10.60;99.90;;;;;;4998373;28;20610;-87
2023/09/14 05:18:22;;;;;;;1.13;1.03;;;10.60;99.90;;;;;;5003806;28;20687;-86
2023/09/14 05:20:48;;;;;;;0.80;0.80;;;10.60;99.90;;;;;;5004145;28;20186;-87
2023/09/14 05:23:14;;;;;;;1.10;0.90;;;10.60;99.90;;;;;;4977137;28;20211;-88
2023/09/14 05:25:41;;;;;;;1.03;1.00;;;10.70;99.90;;;;;;5004941;28;20247;-88
2023/09/14 05:28:08;;;;;;;4.53;2.37;;;10.80;99.90;;;;;;4970030;28;20685;-87
2023/09/14 05:30:34;;;;;;;1.70;1.60;;;10.90;99.90;;;;;;4986877;28;20219;-87
2023/09/14 05:33:00;;;;;;;2.67;0.80;;;10.90;99.90;;;;;;4983214;28;20207;-87
2023/09/14 05:35:26;;;;;;;0.80;0.63;;;10.80;99.90;;;;;;4960752;28;20189;-88
2023/09/14 05:37:52;;;;;;;1.00;1.00;;;10.80;99.90;;;;;;4986671;28;20216;-88
2023/09/14 05:40:18;;;;;;;4.43;2.17;;;10.90;99.90;;;;;;4986128;28;20239;-88
2023/09/14 05:42:44;;;;;;;1.40;1.20;;;11.00;99.90;;;;;;4960306;28;20273;-88
2023/09/14 05:45:11;;;;;;;4.80;1.23;;;11.30;99.90;;;;;;4982115;28;20219;-89
2023/09/14 05:47:37;;;;;;;3.50;2.60;;;11.50;99.90;;;;;;4991256;28;20191;-88
2023/09/14 05:50:06;;;;;;;1.97;1.67;;;11.60;99.90;;;;;;4992159;28;20237;-88
2023/09/14 05:52:32;;;;;;;2.57;1.37;;;11.80;99.90;;;;;;5004105;28;20208;-88
2023/09/14 05:54:58;;;;;;;3.17;1.97;;;12.10;99.90;;;;;;4974220;28;20291;-90
2023/09/14 05:57:24;;;;;;;1.20;1.07;;;12.60;99.90;;;;;;4973435;28;20259;-89
2023/09/14 05:59:50;;;;;;;3.23;1.93;;;12.70;99.90;;;;;;4966875;28;20194;-88
2023/09/14 06:02:18;;;;;;;1.17;1.10;;;12.90;99.90;;;;;;4986619;28;20708;-88
2023/09/14 06:04:45;;;;;;;1.33;1.20;;;12.80;99.90;;;;;;4980486;28;20218;-88
2023/09/14 06:07:11;;;;;;;1.10;0.93;;;12.70;99.90;;;;;;4953361;28;20759;-88
2023/09/14 06:09:37;;;;;;;1.70;1.13;;;12.50;99.90;;;;;;4973518;28;20208;-88
2023/09/14 06:12:03;;;;;;;1.87;1.13;;;12.50;99.90;;;;;;4957069;28;20282;-90
2023/09/14 06:14:29;;;;;;;1.47;1.37;;;12.50;99.90;;;;;;4953305;28;20223;-88
2023/09/14 06:16:55;;;;;;;4.10;1.63;;;12.70;99.90;;;;;;4956523;28;20231;-88
2023/09/14 06:19:21;;;;;;;1.37;1.27;;;12.80;99.90;;;;;;4971733;28;20723;-89
2023/09/14 06:21:47;;;;;;;2.63;1.27;;;13.00;99.90;;;;;;4975225;28;20235;-88
2023/09/14 06:24:13;;;;;;;3.43;1.40;;;13.20;99.90;;;;;;5004536;28;20277;-89
2023/09/14 06:26:39;;;;;;;1.60;1.17;;;13.30;99.90;;;;;;4990656;28;20191;-88
2023/09/14 06:29:05;;;;;;;1.60;1.47;;;13.40;99.90;;;;;;5006775;28;20546;-89
2023/09/14 06:31:30;;;;;;;1.60;1.27;;;13.30;99.90;;;;;;5005858;28;20207;-88
2023/09/14 06:33:56;;;;;;;1.77;1.50;;;13.50;99.90;;;;;;4994651;28;20625;-89
2023/09/14 06:36:22;;;;;;;3.80;1.40;;;13.80;99.90;;;;;;4988785;28;20210;-89
2023/09/14 06:38:48;;;;;;;3.87;1.77;;;14.40;99.90;;;;;;5011418;28;20236;-88
2023/09/14 06:41:15;;;;;;;1.53;1.30;;;15.90;99.90;;;;;;5021887;28;20175;-89
2023/09/14 06:43:45;;;;;;;2.53;1.37;;;17.80;99.90;;;;;;5012477;28;20711;-88
2023/09/14 06:46:11;;;;;;;3.90;1.23;;;19.00;99.90;;;;;;4994973;28;20212;-87
2023/09/14 06:48:38;;;;;;;4.30;1.57;;;19.30;99.90;;;;;;5019863;28;20225;-87
2023/09/14 06:51:05;;;;;;;3.87;1.73;;;19.80;99.90;;;;;;5012241;28;20211;-89
2023/09/14 06:53:32;;;;;;;3.50;1.40;;;20.10;99.90;;;;;;5007468;28;20663;-88
2023/09/14 06:56:03;;;;;;;1.83;1.57;;;20.50;99.90;;;;;;5016102;28;20289;-89
2023/09/14 06:58:29;;;;;;;1.53;1.43;;;21.30;99.90;;;;;;5029664;28;20222;-88
2023/09/14 07:00:56;;;;;;;2.23;1.30;;;22.20;99.90;;;;;;4992430;28;20234;-87
2023/09/14 07:03:22;;;;;;;1.10;0.90;;;24.00;99.90;;;;;;4993453;28;20215;-87
2023/09/14 07:05:47;;;;;;;1.30;1.20;;;24.70;99.90;;;;;;5006630;28;20637;-87
2023/09/14 07:08:13;;;;;;;1.63;1.30;;;23.80;99.90;;;;;;4990312;28;20282;-87
2023/09/14 07:10:39;;;;;;;3.27;1.20;;;22.60;99.90;;;;;;5011308;28;20202;-86
2023/09/14 07:13:05;;;;;;;2.00;1.10;;;21.50;99.90;;;;;;5022191;28;20227;-87
2023/09/14 07:15:31;;;;;;;1.80;1.23;;;20.80;99.90;;;;;;5019869;28;20214;-86
2023/09/14 07:17:57;;;;;;;1.30;1.20;;;21.00;99.90;;;;;;5019380;28;20215;-87
2023/09/14 07:20:23;;;;;;;1.90;1.03;;;20.70;99.90;;;;;;4994971;28;20720;-88
2023/09/14 07:22:49;;;;;;;0.90;0.90;;;20.20;99.90;;;;;;4989647;28;20325;-87
2023/09/14 07:25:15;;;;;;;3.70;1.70;;;19.10;99.90;;;;;;4993264;28;20284;-89
2023/09/14 07:27:41;;;;;;;6.07;1.70;;;19.10;99.90;;;;;;4993315;28;20207;-88
2023/09/14 07:30:07;;;;;;;2.87;1.13;;;21.00;99.90;;;;;;4986900;28;20208;-89
2023/09/14 07:32:34;;;;;;;0.80;0.80;;;22.30;99.90;;;;;;5023838;28;20183;-87
2023/09/14 07:35:01;;;;;;;6.30;1.00;;;22.50;99.90;;;;;;5022059;28;20222;-86
2023/09/14 07:37:27;;;;;;;1.13;0.70;;;23.30;99.90;;;;;;5005106;28;20269;-86
2023/09/14 07:39:52;;;;;;;4.97;1.13;;;23.50;99.90;;;;;;5019640;28;20218;-86
2023/09/14 07:42:19;;;;;;;1.77;0.80;;;23.60;99.90;;;;;;4990741;28;20234;-86
2023/09/14 07:44:44;;;;;;;1.67;1.25;;;23.50;99.90;;;;;;4991275;28;20651;-86
2023/09/14 07:47:10;;;;;;;0.88;0.88;;;23.10;99.90;;;;;;5024892;28;20277;-87
2023/09/14 07:49:36;;;;;;;1.10;0.80;;;23.70;99.90;;;;;;4995113;28;20226;-87
2023/09/14 07:52:02;;;;;;;0.85;0.85;;;24.30;99.90;;;;;;4993840;28;20254;-87
2023/09/14 07:54:27;;;;;;;1.65;1.52;;;24.10;99.90;;;;;;5020827;28;20670;-88
2023/09/14 07:56:53;;;;;;;3.00;1.20;;;23.20;99.90;;;;;;4989853;28;20272;-87
2023/09/14 07:59:19;;;;;;;0.82;0.75;;;23.70;99.90;;;;;;4994417;28;20227;-88
2023/09/14 08:01:45;;;;;;;2.95;1.27;;;23.70;99.90;;;;;;5006406;28;20361;-87
2023/09/14 08:04:11;;;;;;;1.58;0.85;;;22.80;99.90;;;;;;5011490;28;20233;-87
2023/09/14 08:06:36;;;;;;;2.58;0.95;;;21.40;99.90;;;;;;4999834;28;20206;-87
2023/09/14 08:09:03;;;;;;;5.88;1.10;;;21.20;99.90;;;;;;5006593;28;21091;-87
2023/09/14 08:11:31;;;;;;;5.65;0.90;;;22.10;99.90;;;;;;5017053;28;20187;-86
2023/09/14 08:13:57;;;;;;;5.38;1.45;;;22.70;99.90;;;;;;5010395;28;20261;-87
2023/09/14 08:16:23;;;;;;;3.03;0.93;;;23.20;99.90;;;;;;4994768;28;20248;-87
2023/09/14 08:18:49;;;;;;;2.00;0.93;;;22.90;99.90;;;;;;4993724;28;20211;-86
2023/09/14 08:21:15;;;;;;;1.95;1.00;;;22.30;99.90;;;;;;5025347;28;20227;-86
2023/09/14 08:23:41;;;;;;;1.58;0.80;;;22.00;99.90;;;;;;4989909;28;20575;-86
2023/09/14 08:26:07;;;;;;;1.10;1.00;;;23.00;99.90;;;;;;4957444;28;20183;-87
2023/09/14 08:28:32;;;;;;;2.03;1.00;;;23.60;99.90;;;;;;4972272;28;20204;-87
2023/09/14 08:30:58;;;;;;;1.05;0.88;;;25.10;99.90;;;;;;4964787;28;20262;-85
2023/09/14 08:33:24;;;;;;;2.58;0.90;;;25.60;99.90;;;;;;4989175;28;20239;-85
2023/09/14 08:35:50;;;;;;;5.43;1.05;;;24.80;99.90;;;;;;4980267;28;20222;-86
2023/09/14 08:38:16;;;;;;;1.88;1.17;;;23.20;99.90;;;;;;4964100;28;20180;-85
2023/09/14 08:40:43;;;;;;;2.85;1.17;;;21.60;99.90;;;;;;4973083;28;20215;-85
2023/09/14 08:43:12;;;;;;;3.40;1.05;;;20.50;99.90;;;;;;4963535;28;20295;-85
2023/09/14 08:45:39;;;;;;;1.10;1.00;;;20.80;99.90;;;;;;4979825;28;20261;-86
2023/09/14 08:48:05;;;;;;;3.47;1.30;;;21.00;99.90;;;;;;4991675;28;20215;-85
2023/09/14 08:50:33;;;;;;;2.65;1.23;;;20.90;99.90;;;;;;4973224;28;20215;-88
2023/09/14 08:52:59;;;;;;;2.30;1.17;;;20.00;99.90;;;;;;4998725;28;20208;-87
2023/09/14 08:55:34;;;;;;;1.35;0.95;;;20.50;99.90;;;;;;4971958;28;20232;-87
2023/09/14 08:58:01;;;;;;;5.32;1.40;;;20.90;99.90;;;;;;4994042;28;20250;-86
2023/09/14 09:00:28;;;;;;;1.38;1.27;;;20.60;99.90;;;;;;4988508;28;20338;-87
2023/09/14 09:02:56;;;;;;;4.80;1.50;;;20.60;99.90;;;;;;4991833;28;20234;-87
2023/09/14 09:05:26;;;;;;;2.00;1.30;;;20.70;99.90;;;;;;4988423;28;20175;-87
2023/09/14 09:07:54;;;;;;;4.70;1.13;;;20.50;99.90;;;;;;5004845;28;20306;-87
2023/09/14 09:10:25;;;;;;;6.57;1.55;;;19.90;99.90;;;;;;5004848;28;20302;-88
2023/09/14 09:12:54;;;;;;;4.13;1.08;;;19.80;99.90;;;;;;5002418;28;20219;-86
2023/09/14 09:15:22;;;;;;;4.47;1.20;;;19.50;99.90;;;;;;5001197;28;20218;-87
2023/09/14 09:17:51;;;;;;;1.23;1.05;;;20.80;99.90;;;;;;4998804;28;20184;-85
2023/09/14 09:20:24;;;;;;;3.42;1.17;;;22.30;99.90;;;;;;5000910;28;20191;-86
2023/09/14 09:22:52;;;;;;;3.17;1.08;;;22.80;99.90;;;;;;4997468;28;20358;-85
2023/09/14 09:25:19;;;;;;;1.77;1.15;;;22.50;99.90;;;;;;4998731;28;20575;-85
2023/09/14 09:27:45;;;;;;;5.72;1.75;;;21.30;99.90;;;;;;4990407;28;20629;-86
2023/09/14 09:30:12;;;;;;;5.93;1.25;;;21.20;99.90;;;;;;4975688;28;20222;-85
2023/09/14 09:32:38;;;;;;;6.63;1.20;;;21.40;99.90;;;;;;4997962;28;20179;-86
2023/09/14 09:35:25;;;;;;;2.13;1.10;;;20.70;99.90;;;;;;4998947;28;20202;-85
2023/09/14 09:37:55;;;;;;;1.33;1.23;;;20.50;99.90;;;;;;4999252;28;20250;-87
2023/09/14 09:40:23;;;;;;;2.25;1.13;;;20.20;99.90;;;;;;5000563;28;20218;-85
2023/09/14 09:42:49;;;;;;;3.70;1.07;;;20.40;99.90;;;;;;4996183;28;20246;-86
2023/09/14 09:45:18;;;;;;;1.60;1.07;;;20.20;99.90;;;;;;4969140;28;20215;-85
2023/09/14 09:47:44;;;;;;;3.97;1.10;;;20.20;99.90;;;;;;5022461;28;20183;-86
2023/09/14 09:50:14;;;;;;;1.55;1.30;;;21.20;99.90;;;;;;4990496;28;20188;-85
2023/09/14 09:52:42;;;;;;;1.48;0.88;;;21.70;99.90;;;;;;4998829;28;20683;-85
2023/09/14 09:55:16;;;;;;;2.03;0.95;;;22.30;99.90;;;;;;4999267;28;20698;-85
2023/09/14 09:57:58;;;;;;;4.13;1.23;;;23.20;99.90;;;;;;4997529;28;20792;-85
2023/09/14 10:00:29;;;;;;;2.05;1.20;;;23.40;99.90;;;;;;5006494;28;20211;-86
2023/09/14 10:02:55;;;;;;;2.35;1.45;;;23.90;99.90;;;;;;4997303;28;20226;-86
2023/09/14 10:05:31;;;;;;;3.90;1.25;;;24.00;99.90;;;;;;4982391;28;20191;-85
2023/09/14 10:07:59;;;;;;;3.10;1.60;;;23.80;99.90;;;;;;4996789;28;20273;-87
2023/09/14 10:10:26;;;;;;;7.28;1.70;;;24.10;99.90;;;;;;5018753;28;20269;-86
2023/09/14 10:12:56;;;;;;;2.25;1.08;;;24.00;99.90;;;;;;4986153;28;20654;-86
2023/09/14 10:15:25;;;;;;;1.83;0.98;;;24.30;99.90;;;;;;4994221;28;20223;-86
2023/09/14 10:17:54;;;;;;;3.35;1.35;;;24.20;99.90;;;;;;4982121;28;20940;-87
2023/09/14 10:20:21;;;;;;;2.45;1.23;;;23.50;99.90;;;;;;4996631;28;20191;-86
2023/09/14 10:22:48;;;;;;;1.58;1.10;;;24.30;99.90;;;;;;4982994;28;20746;-87
2023/09/14 10:25:16;;;;;;;3.35;1.58;;;25.60;99.90;;;;;;4981678;28;20218;-86
2023/09/14 10:27:42;;;;;;;3.65;1.35;;;25.60;99.90;;;;;;4979551;28;20207;-87
2023/09/14 10:30:18;;;;;;;2.45;1.10;;;25.30;99.90;;;;;;4997336;28;20222;-87
2023/09/14 10:32:52;;;;;;;1.80;1.27;;;25.50;99.90;;;;;;5018890;28;20178;-87
2023/09/14 10:35:18;;;;;;;2.25;1.30;;;25.10;99.90;;;;;;4980973;28;20201;-87
2023/09/14 10:37:45;;;;;;;4.50;2.15;;;24.90;99.90;;;;;;4988255;28;20712;-87
2023/09/14 10:40:13;;;;;;;4.85;1.83;;;25.10;99.90;;;;;;4972276;28;20718;-86
2023/09/14 10:42:42;;;;;;;7.43;1.80;;;25.10;99.90;;;;;;4977229;28;20224;-86
2023/09/14 10:45:10;;;;;;;4.65;1.23;;;23.50;99.90;;;;;;4996997;28;20226;-86
2023/09/14 10:47:38;;;;;;;3.40;1.45;;;22.10;99.90;;;;;;4996687;28;20184;-87
2023/09/14 10:50:09;;;;;;;2.85;1.60;;;21.90;99.90;;;;;;4984349;28;20184;-88
2023/09/14 10:52:37;;;;;;;1.25;1.15;;;21.50;99.90;;;;;;4996053;28;20223;-86
2023/09/14 10:55:08;;;;;;;5.25;1.40;;;21.50;99.90;;;;;;4988749;28;20786;-87
2023/09/14 10:57:40;;;;;;;2.40;1.63;;;21.50;99.90;;;;;;4997044;28;20235;-88
2023/09/14 11:00:07;;;;;;;5.03;1.13;;;22.30;99.90;;;;;;4997634;28;20321;-88
2023/09/14 11:02:39;;;;;;;2.25;1.20;;;22.90;99.90;;;;;;4996016;28;20347;-88
2023/09/14 11:05:21;;;;;;;5.28;1.45;;;23.70;99.90;;;;;;4999865;28;20211;-87
2023/09/14 11:07:55;;;;;;;6.13;1.33;;;24.30;99.90;;;;;;4998258;28;20226;-87
2023/09/14 11:10:22;;;;;;;3.25;1.17;;;24.70;99.90;;;;;;4997371;28;20238;-88
2023/09/14 11:12:49;;;;;;;5.85;1.23;;;24.80;99.90;;;;;;4998574;28;20239;-87
2023/09/14 11:15:16;;;;;;;3.85;1.92;;;23.30;99.90;;;;;;4986710;28;20212;-88
2023/09/14 11:17:47;;;;;;;1.85;1.27;;;23.10;99.90;;;;;;5021532;28;20690;-88
2023/09/14 11:20:22;;;;;;;4.50;1.10;;;23.30;99.90;;;;;;4982991;28;20198;-86
2023/09/14 11:22:52;;;;;;;2.30;1.60;;;23.60;99.90;;;;;;4996835;28;20982;-87
2023/09/14 11:25:33;;;;;;;1.30;1.20;;;24.20;99.90;;;;;;5012172;28;20223;-87
2023/09/14 11:28:00;;;;;;;5.65;1.42;;;22.90;99.90;;;;;;5017049;28;20218;-87
2023/09/14 11:30:27;;;;;;;1.95;1.30;;;21.50;99.90;;;;;;5002057;28;20678;-88
2023/09/14 11:32:54;;;;;;;1.35;1.25;;;21.50;99.90;;;;;;5021745;28;20187;-88
2023/09/14 11:35:44;;;;;;;6.30;1.35;;;22.70;99.90;;;;;;5002747;28;20251;-88
2023/09/14 11:38:16;;;;;;;2.95;1.75;;;23.60;99.90;;;;;;5006792;28;20335;-88
2023/09/14 11:40:43;;;;;;;2.50;1.25;;;23.80;99.90;;;;;;5016796;28;20302;-85
2023/09/14 11:43:21;;;;;;;5.25;1.85;;;24.00;99.90;;;;;;4997137;28;20605;-88
2023/09/14 11:46:00;;;;;;;3.90;1.55;;;24.00;99.90;;;;;;5002866;28;20234;-89
2023/09/14 11:48:33;;;;;;;2.33;1.08;;;22.60;99.90;;;;;;4990951;28;20234;-87
2023/09/14 11:51:02;;;;;;;3.65;1.38;;;22.50;99.90;;;;;;5017466;28;20217;-88
2023/09/14 11:53:31;;;;;;;6.07;1.70;;;23.00;99.90;;;;;;5017061;28;20183;-88
2023/09/14 11:55:57;;;;;;;1.83;1.10;;;23.60;99.90;;;;;;4995671;28;20290;-87
2023/09/14 11:58:23;;;;;;;2.22;1.35;;;23.60;99.90;;;;;;5008000;28;20314;-87
2023/09/14 12:00:56;;;;;;;1.92;1.55;;;23.40;99.90;;;;;;5002783;28;20618;-87
2023/09/14 12:03:22;;;;;;;2.75;1.50;;;23.00;99.90;;;;;;5019251;28;20948;-87
2023/09/14 12:05:47;;;;;;;1.65;1.30;;;22.70;99.90;;;;;;5008446;28;20477;-87
2023/09/14 12:08:17;;;;;;;1.48;1.38;;;22.80;99.90;;;;;;5015817;28;20187;-88
2023/09/14 12:10:45;;;;;;;4.05;1.65;;;22.80;99.90;;;;;;5018858;28;20230;-85
2023/09/14 12:13:17;;;;;;;2.90;1.20;;;23.10;99.90;;;;;;5015883;28;20211;-86
2023/09/14 12:15:45;;;;;;;4.60;1.70;;;22.90;99.90;;;;;;5015332;28;20210;-87
2023/09/14 12:18:11;;;;;;;1.70;1.02;;;22.90;99.90;;;;;;5005029;28;20685;-87
2023/09/14 12:20:40;;;;;;;3.75;1.17;;;22.80;99.90;;;;;;5037993;28;20274;-87
2023/09/14 12:23:07;;;;;;;1.90;1.38;;;22.80;99.90;;;;;;5024188;28;20225;-87
2023/09/14 12:25:34;;;;;;;9.23;1.30;;;22.80;99.90;;;;;;5006496;28;20787;-88
2023/09/14 12:28:03;;;;;;;3.60;1.30;;;22.90;99.90;;;;;;5009291;28;20270;-88
2023/09/14 12:30:29;;;;;;;2.58;0.90;;;22.20;99.90;;;;;;5018203;28;20908;-88
2023/09/14 12:32:56;;;;;;;3.60;1.33;;;21.90;99.90;;;;;;5019185;28;20215;-87
2023/09/14 12:35:23;;;;;;;0.98;0.90;;;21.80;99.90;;;;;;4990766;28;20197;-88
2023/09/14 12:37:53;;;;;;;3.28;1.20;;;22.20;99.90;;;;;;5019836;28;20218;-86
2023/09/14 12:40:19;;;;;;;1.38;0.93;;;22.80;99.90;;;;;;5011995;28;20311;-87
2023/09/14 12:42:45;;;;;;;2.03;1.45;;;22.90;99.90;;;;;;5009699;28;20231;-90
2023/09/14 12:45:17;;;;;;;5.50;1.75;;;23.00;99.90;;;;;;5004946;28;20218;-89
2023/09/14 12:47:45;;;;;;;3.42;1.60;;;23.00;99.90;;;;;;5023901;28;20247;-88
2023/09/14 12:50:17;;;;;;;4.63;1.45;;;22.70;99.90;;;;;;5006508;28;20179;-89